METAR

RPLL (MNL) – NINOY AQUINO INTERNATIONAL AIRPORT (MANILA INTERNATIONAL AIRPORT)

METAR RPLL 250000Z VRB02KT 9999 SCT025 BKN110 28/24 Q1011 NOSIG RMK A2985=
METAR RPLL 242300Z VRB02KT 9999 FEW025 SCT100 26/24 Q1010 NOSIG RMK A2983=
METAR RPLL 242200Z 22003KT 9999 FEW025 SCT100 26/24 Q1009 NOSIG RMK A2980= 
METAR RPLL 242100Z 24002KT 9999 FEW025 BKN100 26/23 Q1009 NOSIG RMK A2980= 
METAR RPLL 242000Z VRB02KT 9999 FEW025 BKN100 26/23 Q1009 NOSIG RMK A2980= 
METAR RPLL 241900Z VRB02KT 9999 FEW025 BKN100 26/23 Q1009 NOSIG RMK A2980= 
METAR RPLL 241800Z 07003KT 020V090 9999 FEW025 BKN100 26/23 Q1009 NOSIG RMK A2980= 
METAR RPLL 241700Z 04004KT 010V070 9999 FEW025 SCT100 26/23 Q1010 NOSIG RMK A2983= 
METAR RPLL 241600Z 05004KT 9999 FEW025 BKN100 26/23 Q1011 NOSIG RMK A2985= 
METAR RPLL 241500Z 11004KT 070V150 9999 FEW025 BKN100 28/21 Q1011 NOSIG RMK A2985= 
METAR RPLL 241400Z 12005KT 090V180 9999 FEW025 BKN100 28/24 Q1011 NOSIG RMK A2985= 
METAR RPLL 241300Z 13004KT 040V180 9999 FEW025 BKN100 28/24 Q1011 NOSIG RMK A2985=
METAR RPLL 241200Z 12006KT 090V170 9999 FEW025 BKN100 28/23 Q1010 NOSIG RMK A2983=
METAR RPLL 241100Z 12004KT 070V170 9999 FEW025 BKN100 28/23 Q1010 NOSIG RMK A2983=
METAR RPLL 241000Z 17003KT 120V240 9999 FEW025 BKN100 28/24 Q1009 NOSIG RMK A2980=
METAR RPLL 240900Z 28004KT 9999 FEW025 BKN100 28/25 Q1009 NOSIG RMK A2980=
METAR RPLL 240800Z VRB02KT 9000 SCT025 BKN100 29/24 Q1009 NOSIG RMK A2980= 
METAR RPLL 240700Z 29005KT 250V350 9000 SCT025 BKN100 28./25 Q1009 NOSIG RMK A2980=
METAR RPLL 240600Z VRB03KT 9000 -RA SCT023 BKN100 OVC230 29/24 Q1009 NOSIG RMK A2980=
METAR RPLL 240500Z 35003KT 290V070 9000 -RA SCT025 OVC100 27/25 Q1010 NOSIG RMK A2983=
METAR RPLL 240400Z 01007KT 340V040 9000 -RA SCT023 OVC100 27/25 Q1011 NOSIG RMK A2985=
MTEAR RPLL 240300Z 07004KT 9000 -RA FEW015 BKN100 26/24 Q1012 NOSIG RMK A2988=
METAR RPLL 240200Z 08003KT 050V110 9999 -RA FEW018 BKN100 26/24 Q1012 NOSIG RMK A2988=
METAR RPLL 240100Z 07005KT 9999 -RA FEW023 BKN100 27/25 Q1013 NOSIG RMK A2991=
METAR RPLL 240000Z VRB01KT 8000 -RA FEW014 BKN070 26/24 Q1012 BECMG 5000 RMK A2988=
METAR RPLL 232300Z VRB02KT 9999 FEW023 BKN080 26/24 Q1011 NOSIG RMK A2985=
METAR RPLL 232200Z 26003KT 9999 -RA FEW023 BKN100 25/24 Q1010 NOSIG RMK A2983=
METAR RPLL 232100Z VRB01KT 9999 -RA FEW025 BKN100 25/24 Q1010 NOSIG RMK A2983=
METAR RPLL 232000Z VRB01KT 9999 -RA FEW025 OVC100 25/23 Q1010 NOSIG RMK A2983=
METAR RPLL 231900Z VRB02KT 9999 FEW025 OVC200 26/23 Q1010 NOSIG RMK A2983=
METAR RPLL 231800Z 00000KT 9999 FEW023 BKN100 26/23 Q1010 NOSIG RMK A2983=
METAR RPLL 231700Z 06003KT 030V110 9999 SCT023 BKN090 26/22 Q1011 NOSIG RMK A2985=
METAR RPLL 231600Z VRB02KT 9999 -SHRA SCT023 BKN090 27/22 Q1012 NOSIG RMK A2988=
METAR RPLL 231500Z 13007KT 070V180 9999 SCT023 BKN100 27/23 Q1012 NOSIG RMK A2988=
METAR RPLL 231400Z 09006KT 060V140 9999 SCT023 BKN100 27/23 Q1012 NOSIG RMK A2988=
METAR RPLL 231300Z VRB02KT 9999 FEW023 BKN090 27/25 Q1012 NOSIG RMK A2988=
METAR RPLL 231200Z 09004KT 060V130 9999 -RA  SCT022 BKN090 26/25 Q1012 NOSIG RMK A2988=
METAR RPLL 231100Z 10005KT 070V160 9000 -RA SCT022 OVC090 27/25 Q1011 NOSIG RMK A2985=
METAR RPLL 231000Z 10004KT 070V150 9000 -RA SCT022 OVC090 28/25 Q1011 NOSIG RMK A2985=
METAR RPLL 230900Z 09004KT 060V150 9000 -SHRA SCT023 BKN100 28/26 Q1010 NOSIG RMK A2983=
METAR RPLL 230800Z 13008KT 080V190 9999 FEW023 BKN100 29/25 Q1010 NOSIG RMK A2983=
METAR RPLL 230700Z 13006KT 080V200 9999 SCT023 BKN100 30/25 Q1009 NOSIG RMK A2980=
METAR RPLL 230600Z VRB06KT 9999 FEW023 BKN300 30/25 Q1010 NOSIG RMK A2983=
METAR RPLL 230500Z 17007KT 120V200 9999 SCT023 BKN100 29/25 Q1011 NOSIG RMK A2985=
METAR RPLL 230400Z 15006KT 090V230 9999 SCT023 BKN100 30/25 Q1012 NOSIG RMK A2988=
SPECI RPLL 230333Z 12005KT 070V170 9999 -SHRA BKN023 BKN100 30/25 Q1012 NOSIG RMK A2988=
METAR RPLL 230300Z VRB04KT 9999 BKN023 BKN100 31/24 Q1012 NOSIG RMK A2988=
METAR RPLL 230200Z 11004KT 060V190 9999 BKN030 32/24 Q1012 NOSIG RMK A2988=
METAR RPLL 230100Z 08003KT 030V200 9999 FEW025 31/25 Q1012 NOSIG RMK A2988=
METAR RPLL 230000Z VRB02KT 9999 FEW025 30/24 Q1012 NOSIG RMK A2988=

 

RPVM (CEB) – MACTAN-CEBU INTERNATIONAL (INTERNATIONAL AIRPORT)

METAR RPVM 250000Z 24003KT 200V270 9999 FEW018CB BKN300 29/25 Q1011 RMK A2985 CB NE=
METAR RPVM 242300Z 26003KT 9999 FEW018CB BKN250 27/25 Q1011 RMK A2985 CB SW=
METAR RPVM 242200Z 20002KT 9999 FEW018CB OVC100 26/24 Q1010 RMK A2983 CB SW-W=
METAR RPVM 242100Z 15002KT 9999 TS FEW018CB OVC090 26/24 Q1010 RMK A2983 CB NE-SE/SW-W=
METAR RPVM 242000Z VRB02KT 9999 TS FEW018CB BKN100 26/24 Q1010 RMK A2983 CB E,SE=
METAR RPVM 241900Z VRB02KT 9999 FEW020 OVC250 26/24 Q1010 RMK A2983=
METAR RPVM 241800Z VRB01KT 9999 FEW020 OVC250 26/24 Q1010 RMK A2983=
METAR RPVM 241700Z 34003KT 9999 FEW020 OVC250 26/24 Q1011 RMK A2985=
METAR RPVM 241600Z 35003KT 9999 FEW018CB OVC250 26/24 Q1011 RMK A2985 CB NE, OCNL LTG NE=
METAR RPVM 241500Z 00000KT 9999 FEW018CB OVC250 27/25 Q1011 RMK A2985 CB NE, OCNL LTG NE=
METAR RPVM 241400Z 32002KT 9999 FEW018CB OVC250 27/25 Q1011 RMK A2985 CB N NE=
METAR RPVM 241300Z 34003KT 9999 FEW020 OVC250 27/25 Q1011 RMK A2985=
METAR RPVM 241200Z 24002KT 9999 FEW020 OVC250 27/25 Q1010 NOSIG RMK A2983=
METAR RPVM 241100Z 20002KT 9999 FEW020 OVC250 28/25 Q1010 RMK A2983=
METAR RPVM 241000Z 17002KT 9999 FEW018CB OVC100 28/25 Q1010 RMK A2983 CB W NW=
METAR RPVM 240900Z 16004KT 9999 FEW018CB OVC100 28/25 Q1010 RMK A2983 CB S SW=
METAR RPVM 240800Z 11005KT 9999 SCT018CB OVC100 30/25 Q1009 RMK A2980 CB SE-S,SW NW=
METAR RPVM 240700Z 10005KT 9999 FEW018CB OVC100 30/25 Q1009 RMK A2980 CB SE -S NW=
METAR RPVM 240600Z 09006KT 050V150 9999 FEW018CB BKN300 31/23 Q1009 RMK A2980 CB NW-N,E-SE=
METAR RPVM 240500Z 14005KT 090V200 9999 FEW018CB SCT300 32/23 Q1009 RMK A2980 CB NW-N,SE=
METAR RPVM 240400Z VRB03KT 9999 FEW018CB SCT300 31/24 Q1010 RMK A2983 CB SE=
METAR RPVM 240300Z 10004KT 350V160 9999 FEW020 BKN300 31/24 Q1011 RMK A2985=
METAR RPVM 240200Z VRB04KT 9999 FEW020TCU BKN250 30/25 Q1012 RMK A2988 TCU WSW=
METAR RPVM 240100Z VRB02KT 9999 FEW020 BKN100 29/25 Q1012 RMK A2988=
METAR RPVM 240000Z 22004KT 9999 FEW020 BKN100 28/25 Q1012 RMK A2988=
METAR RPVM 232300Z 25004KT 9999 FEW018CB SCT100 BKN250 27/25 Q1011 RMK A2985=
METAR RPVM 232200Z 29001KT 9999 SCT020 OVC090 26/25 Q1011 RMK A2985=
METAR RPVM 232100Z 27002KT 9000 -RA SCT020 OVC090 26/25 Q1010 RMK A2983=
METAR RPVM 232000Z 17003KT 9000 -RA SCT020 OVC090 26/25 Q1010 RMK A2983=
METAR RPVM 231900Z 31003KT 9000 -SHRA FEW018CB OVC090 26/25 Q1010 RMK  A2983 CB E-SE=
METAR RPVM 231800Z  VRB01KT 9999 SCT018CB OVC090 26/25 Q1010 RMK A2983 CB NE-E, S-SW=
METAR RPVM 231700Z 26002KT 9999 FEW018CB OVC090 25/23 Q1011 RMK A2985 CB E-SE=
METAR RPVM 231600Z 05003KT 340V090 9000 TS -SHRA SCT018CB OVC100 25/23 Q1011 RMK A2985 CB W,N,E-OHD=
METAR RPVM 231500Z 00000KT 9999 TS FEW018CB OVC100 26/24 Q1012 RMK A2988 CB E-SE=
METAR RPVM 231400Z 30001KT 9999 FEW018CB BKN100 26/24 Q1012 RMK A2988 CB E-SE WITH OCNL LTG=
METAR RPVM 231300Z 30002KT 9999 FEW020 SCT100 27/25 Q1012 RMK A2988=
METAR RPVM 231200Z 01002KT 9999 FEW020 BKN100 27/25 Q1011 RMK A2985=
METAR RPVM 231100Z 32004KT 9999 FEW020 BKN100 27/25 Q1011 RMK A2985=
METAR RPVM 231000Z 33004KT 280V350 9999 FEW018CB BKN250 27/25 Q1010 RETS RMK A2983 CB SW=
METAR RPVM 230900Z 35004KT 9000 -TSRA FEW018CB BKN100 27/25 Q1010 RMK A2983 CB SE-S/NW=
METAR RPVM 230800Z 00000KT 8000 -TSRA SCT018CB BKN090 27/25 Q1009 RMK A2980 CB SE-SW=
METAR RPVM 230700Z 03007KT 9999 TS SCT018CB BKN100 28/25 Q1009 RMK A2980 CB SE-SW=
METAR RPVM 230600Z 03011KT 9999 FEW018 SCT100 29/25 Q1009 RMK A2980 CB S=
METAR RPVM 230500Z 03009KT 9999 FEW20 SCT100 29/25 Q1010 RMK A2983=
METAR RPVM 230400Z 04008KT 9999 FEW020 BKN100 29/25 Q1010 RMK A2983=
METAR RPVM 230300Z 04008KT 9999 FEW020 BKN100 28/24 Q1011 RMK A2985=
METAR RPVM 230200Z 02010KT 9999 FEW020 BKN100 29/25 Q1012 RMK A2988=
METAR RPVM 230100Z 02009KT 9999 FEW018CB BKN100 27/25 Q1012 RMK A2985 CB N=
METAR RPVM 230000Z 35006KT 9999 SCT018CB OVC090 26/24 Q1012 RMK A2985 CB NE,NW,N=

 

RPLC (CRK) – CLARK INTERNATIONAL AIRPORT

METAR RPLC 250000Z 36004KT 8000 SCT020 BKN300 27/21 Q1012 NOSIG RMK A2988=
METAR RPLC 242300Z 27002KT 8000 SCT020 BKN100 25/22 Q1011 NOSIG RMK A2985=
METAR RPLC 242200Z 32002KT 8000 SCT020 BKN100 25/20 Q1010 NOSIG RMK A2983=
METAR RPLC 242100Z 28002KT 8000 SCT020 BKN100 25/20 Q1010 NOSIG RMK A2983=
METAR RPLC 242000Z 32002KT 8000 SCT020 BKN300 24/20 Q1010 NOSIG RMK A2983=
METAR RPLC 241900Z 32004KT 8000 SCT020 BKN300 24/20 Q1010 NOSIG RMK A2983=
METAR RPLC 241800Z 32002KT 8000 FEW020 BKN100 24/21 Q1011 NOSIG RMK A2985=
METAR RPLC 241700Z 32002KT 9999 FEW020 BKN300 24/21 Q1011 NOSIG RMK A2985=
METAR RPLC 241600Z 25002KT 9999 SCT020 BKN300 25/21 Q1012 NOSIG RMK A2988=
METAR RPLC 241500Z 29002KT 7000 SCT020 BKN100 25/22 Q1013 NOSIG RMK A2991=
METAR RPLC 241400Z 30002KT 7000 SCT020 BKN100 25/21 Q1012 NOSIG RMK A2988=
METAR RPLC 241300Z 25002KT 7000 SCT020 BKN100 25/21 Q1012 NOSIG RMK A2988=
METAR RPLC 241200Z 22002KT 7000 SCT020 BKN100 25/22 Q1011 NOSIG RMK A2985=
METAR RPLC 241100Z 27002KT 8000 SCT020 BKN100 25/22 Q1011 NOSIG RMK A2985=
METAR RPLC 241000Z 32004KT 9999 SCT020 BKN100 26/22 Q1010 NOSIG RMK A2983=
METAR RPLC 240900Z 32004KT 9999 SCT020 BKN300 27/23 Q1010 NOSIG RMK A2983=
METAR RPLC 240800Z 29004KT 9000 SCT018 BKN100 26/23 Q1010 NOSIG RMK A2983=
METAR RPLC 240700Z 36004KT 7000 SCT018 BKN100 26/23 Q1010 RERA RMK A2983=
METAR RPLC 240600Z 36006KT 4000 -RA SCT018 OVC100 25/23 Q1011 RMK A2985=
METAR RPLC 240500Z 04010KT 4000 -RA SCT018 OVC100 26/23 Q1012 RMK A2988= 
SPECI RPLC 240410Z 36002KT 4000 -RA SCT020 OVC100 27/24 Q1013 RMK A2991=
METAR RPLC 240400Z 09002KT 40000 SCT020 OVC100 28/25 Q1013 RMK A2991=
METAR RPLC 240300Z 14006KT 4000 SCT020 OVC100 28/25 Q1013 RERA RMK A2994=
METAR RPLC 240200Z 16002KT 9999 SCT020 BKN100 30/23 Q1014 NOSIG RMK A2994=
METAR RPLC 240100Z 36002KT 9999 SCT020 OVC100 28/22 Q1014 NOSIG RMK A2994=
METAR RPLC 240000Z 11002KT 9999 SCT020 OVC100 28/22 Q1014 NOSIG RMK A2994=
METAR RPLC 232300Z 32002KT 8000 SCT020 BKN100 26/22 Q1012 NOSIG RMK A2988=
METAR RPLC 232200Z 34002KT 8000 SCT020 BKN100 26/21 Q1011 NOSIG RMK A2985=
METAR RPLC 232100Z 34002KT 8000 SCT020 BKN100 26/21 Q1011 NOSIG RMK A2985=
METAR RPLC 232000Z 32002KT 8000 FEW020 BKN100 25/22 Q1012 NOSIG RMK A2988=
METAR RPLC 231900Z 27002KT 8000 FEW020 BKN300 25/22 Q1012 NOSIG RMK A2988=
METAR RPLC 231800Z 25002KT 8000 SCT020 BKN300 25/22 Q1012 NOSIG RMK A2988=
METAR RPLC 231700Z 27002KT 8000 SCT020 BKN100 26/22 Q1012 NOSIG RMK A2988=
METAR RPLC 231600Z 22002KT 8000 SCT020 BKN300 26/22 Q1013 NOSIG RMK A2991=
METAR RPLC 231500Z 32002KT 8000 SCT020 BKN100 26/23 Q1013 NOSIG RMK A2991=
METAR RPLC 231400Z 33002KT 8000 SCT020 BKN100 26/23 Q1013 NOSIG RMK A2991=
METAR RPLC 231300Z 32002KT 8000 SCT020 BKN100 26/23 Q1013 RMK A2991=
METAR RPLC 231200Z 02008KT 8000 -RA SCT018 BKN100 26/23 Q1014 RMK A2994=
METAR RPLC 231100Z 14010KT 9999 SCT020 BKN100 28/23 Q1013 NOSIG RMK A2991=
METAR RPLC 231000Z 14006KT 9999 SCT020 BKN100 30/23 Q1012 NOSIG RMK A2988=
METAR RPLC 230900Z 14008KT 9999 SCT020 BKN100 BKN300 31/23 Q1012 NOSIG RMK A2988=
METAR RPLC 230800Z 14008KT 9999 SCT020 BKN100 33/22 Q1011 NOSIG RMK A2985=
METAR RPLC 230700Z 04010KT 9999 SCT020 BKN300 32/22 Q1010 NOSIG RMK A2983=
METAR RPLC 230600Z 36006KT 9999 SCT020 BKN300 32/22 Q1011 NOSIG RMK A2985=
METAR RPLC 230500Z 02002KT 9999 SCT020 BKN100 32/22 Q1012 NOSIG RMK A2988=
METAR RPLC 230400Z 02004KT 9999 SCT020 BKN100 31/22 Q1013 NOSIG RMK A2991=
METAR RPLC 230300Z 34006KT 9999 SCT020 BKN100 31/22 Q1014 NOSIG RMK A2994=
METAR RPLC 230200Z 02010KT 9999 FEW020 BKN100 30/22 Q1014 NOSIG RMK A2994=
METAR RPLC 230100Z 35008KT 9999 FEW020 BKN300 29/22 Q1013 NOSIG RMK A2991=
METAR RPLC 230000Z 36004KT 9999 FEW020 BKN300 28/22 Q1014 NOSIG RMK A2994=

 

RPLB (SFS) – SUBIC BAY INTERNATIONAL AIRPORT

METAR RPLB 250000Z 04003KT 330V100 9999 FEW020 SCT080 BKN300 28/22 Q1011 NOSIG RMK A2985=
METAR RPLB 242300Z 08006KT 9999 FEW020 BKN300 25/21 Q1011 NOSIG RMK A2985=
METAR RPLB 242200Z 03002KT 9999 FEW020 BKN300 24/21 Q1010 NOSIG RMK A2983=
METAR RPLB 242100Z VRB02KT 9999 FEW020 BKN300 24/21 Q1010 NOSIG RMK A2983=
METAR RPLB 242000Z 07003KT 9999 FEW020 SCT080 BKN300 25/21 Q1010 NOSIG RMK A2983=
METAR RPLB 241900Z 07004KT 040V100 9999 FEW020 SCT080 BKN300 25/21 Q1010 NOSIG RMK A2983=
METAR RPLB 241800Z 05004KT 9999 FEW020 SCT080 BKN300 25/21 Q1010 NOSIG RMK A2983=
METAR RPLB 241700Z 04005KT 9999 FEW020 BKN300 25/21 Q1011 NOSIG RMK A2985=
METAR RPLB 241600Z 08006KT 9999 FEW020 SCT080 BKN300 25/21 Q1012 NOSIG RMK A2988=
METAR RPLB 241500Z 05005KT 9999 FEW020 BKN080 26/21 Q1012 NOSIG RMK A2988=
METAR RPLB 241400Z 05006KT 9999 FEW020 BKN080 26/22 Q1012 NOSIG RMK A2988=
METAR RPLB 241300Z 04006KT 9999 FEW020 BKN080 26/22 Q1012 NOSIG RMKA2988=
METAR RPLB 241200Z VRB01KT 9999 FEW020 SCT080 26/22 Q101 NOSIG RMK A2985=
METAR RPLB 241100Z 07007KT 9999 FEW020 SCT080 25/21 Q1010 NOSIG RMK A2983=
METAR RPLB 241000Z 07008KT 9999 FEW020 BKN080 26/21 Q1010 NOSIG RMK A2983=
METAR RPLB 240900Z 09008KT 9999 FEW020 BKN080 27/21 Q1010 NOSIG RMK A2983=
METAR RPLB 240800Z 05007KT 9999 FEW020 BKN080 28/21 Q1009  NOSIG RMK A2980=
METAR RPLB 240700Z 05010KT 9999 FEW020 BKN080 28/21 Q1010 NOSIG RMK A2983=
METAR RPLB 240600Z 06012KT 9999 FEW018 BKN080 28/22 Q1010 NOSIG RMK A2983=
METAR RPLB 240500Z 06012KT 9999 FEW018 BKN080 27/23 Q1010 NOSIG RMK A2983=
METAR RPLB 240400Z 05014KT 9999 FEW018 BKN080 29/23 Q1011 NOSIG RMK A2985=
METAR RPLB 240300Z 05010KT 9999 FEW018 BKN080 28/23 Q1012 NOSIG RMK A2988=
METAR RPLB 240200Z 05006KT 9999 FEW018 BKN080 28/22 Q1013 NOSIG RMK A2991=
METAR RPLB 240100Z 07007KT 9999 FEW020 BKN080 27/22 Q1013 NOSIG RMK A2991=
METAR RPLB 240000Z 07010KT 9999 FEW020 BKN080 27/22 Q1012 NOSIG RMK A2988=
METAR RPLB 232300Z 04005KT 9999 FEW020 BKN080 26/22 Q1011 NOSIG RMK A2985=
METAR RPLB 232200Z 05006KT 9999 FEW020 BKN080 25/21 Q1011 NOSIG RMK A2985=
METAR RPLB 232100Z 06006KT 9999 FEW020 BKN080 25/22 Q1011 RMK A2985=
METAR RPLB 232000Z 04008KT 9999 FEW020 BKN080 26/21 Q1011 RMK A2985=
METAR RPLB 231900Z 03006KT 9999 FEW020 BKN080 26/21 Q1011 RMK A2985=
METAR RPLB 231800Z 06005KT 9999 FEW020 BKN080 25/22 Q1011 RMK A2985=
METAR RPLB 231700Z 09004KT 040V120 9999 FEW020 BKN080 26/21 Q1012 RMK A2988=
METAR RPLB 231600Z 10006KT 9999 FEW020 BKN080 26/22 Q1012 RMK A2988=
METAR RPLB 231500Z 24003KT 190V270 9999 FEW020 BKN080 26/22 Q1013 RMK A2991=
METAR RPLB 231400Z 05008KT 9999 FEW018 BKN080 25/23 Q1012 RMK A2988=
METAR RPLB 231300Z 07009KT 9999 FEW017CB FEW018 BKN080 25/23 Q1013 RMK A2991 CB W WITH FRQ LTG=
METAR RPLB 231200Z 04006KT 360V080 9000 -SHRA FEW017CB SCT018 OVC070 25/23 Q1013 RMK A2991 CB W FRQ LTG=
SPECI RPLB 231130Z 08012KT 9000 -SHRA FEW017CB SCT018 BKN080 25/23 Q1012 RMK A2988 CB W WITH FRQ LTG=
METAR RPLB 231100Z 08015KT 9999 FEW018CB FEW020 BKN080 27/23 Q1012 RMK A2988 CB SW/W WITH FRQ LTG=
METAR RPLB 231000Z 05006KT 9999 FEW020 SCT080 BKN300 26/23 Q1011 NOSIG RMK A2985=
METAR RPLB 230900Z 08011KT 050V110 9000 -SHRA FEW020 SCT080 30/23 Q1011 NOSIG RMK A2985=
METAR RPLB 230800Z 07012KT 040V110 9999 FEW020 BKN300 32/23 Q1010 NOSIG RMK A2983=
METAR RPLB 230700Z 08015KT 9999 FEW020 SCT300 33/22 Q1010 NOSIG RMK A2983=
METAR RPLB 230600Z 07014KT 9999 FEW020 SCT300 33/23 Q1010 NOSIG RMK A2983=
METAR RPLB 230500Z 05011KT 9999 FEW020 BKN300 32/23 Q1012 NOSIG RMK A2988=
METAR RPLB 230400Z 06013KT 9999 FEW020 SCT300 33/23 Q1012 NOSIG RMK A2988=
METAR RPLB 230300Z 05013KT 020V080 9999 FEW020 BKN300 31/23 Q1013 NOSIG RMK A2991=
METAR RPLB 230200Z 08013KT 9999 FEW020 BKN300 31/22 Q1013 NOSIG RMK A2991=
METAR RPLB 230100Z 03003KT 360V060 9999 FEW020 BKN300 29/23 Q1013 NOSIG RMK A2991=
METAR RPLB 230000Z 06005KT 9999 FEW020 SCT080 BKN300 27/22 Q1013 NOSIG RMK A2991=

 

RPLI (LAO) – LAOAG INTERNATIONAL AIRPORT

METAR RPLI 250000Z 08003KT 330V120 9999 FEW018 28/23 Q1011 NOSIG RMK A2985=
METAR RPLI 242300Z VRB02KT 9999 FEW018 25/23 Q1010 NOSIG RMK A2983=
METAR RPLI 242200Z VRB02KT 9999 FEW018 23/23 Q1010 NOSIG RMK A2983= 
METAR RPLI 242100Z 06003KT 9999 FEW018 23/23 Q1009 NOSIG RMK A2980= 
METAR RPLI 241800Z 00000KT 9999 FEW018 25/24 Q1010 NOSIG RMK A2983= 
METAR RPLI 241500Z 35003KT 9999 FEW018 25/24 Q1011 NOSIG RMK A2985= 
METAR RPLI 241200Z 07004KT 9999 FEW018 29/26 Q1010 NOSIG RMK A2983= 
METAR RPLI 241100Z VRB02KT 9999 FEW018 29/26 Q1009 NOSIG RMK A2980=
METAR RPLI 241000Z 07007KT 9999 SCT018 30/26 Q1009 RMK A2980=
METAR RPLI 240900Z 02004KT 340V050 9999 FEW017CB SCT018 BKN290 32/25 Q1009 NOSIG RMK A2980 CB SW= 
METAR RPLI 240800Z 09004KT 9999 FEW017CB SCT018 35/23 Q1008 NOSIG RMK A2977 CB NW=
METAR RPLI 240700Z VRB04KT 9999 FEW017CB SCT018 33/26 Q1008 NOSIG RMK A2977 CB NE SE=
METAR RPLI 240600Z VRB05KT 9999 FEW017CB SCT018 32/24 Q1008 NOSIG RMK A2977 CB NE SE= 
METAR RPLI 240500Z 36011KT 330V030 9999 FEW017CB SCT290 33/27 Q1009 NOSIG RMK A2980 CB NE-SE NNW=
METAR RPLI 240400Z 35011KT 320V030 9999 FEW017CB SCT290 33/26 Q1010 NOSIG RMK A2983 CB NNW NE SE=
METAR RPLI 240300Z 36008KT 9999 FEW017CB SCT290 32/25 Q1011 NOSIG RMK A2985 CB E NNW=
METAR RPLI 240200Z 35006KT 9999 FEW017CB SCT290 31/24 Q1011 NOSIG RMK A2985 CB NNW=
METAR RPLI 240100Z 36003KT 310V060 9999 FEW017CB 31/23 Q1011 NOSIG RMK A2986 CB NNW=
METAR RPLI 240000Z 07003KT 020V100 9999 FEW018 BKN290 29/24 Q1012 NOSIG RMK A2988=
METAR RPLI 232300Z VRB02KT 9999 FEW018 26/23 Q1012 NOSIG RMK A2988=
METAR RPLI 232200Z 06003KT 9999 FEW018 24/22 Q1011 NOSIG RMK A2985=
METAR RPLI 232100Z 05003KT 9999 FEW018 25/22 Q1010 NOSIG RMK A2983=
METAR RPLI 231800Z 05005KT 9999 FEW018 26/22 Q1011 NOSIG RMK A2985=
METAR RPLI 231500Z VRB01KT 9999 FEW018 26/23 Q1013 NOSIG RMK A2991=
METAR RPLI 231200Z 04012KT 9999 FEW017CB SCT100 29/24 Q1012 NOSIG RMK A2988 CB NE-E=
METAR RPLI 231100Z 04012KT 9999 FEW017CB SCT100 29/24 Q1011 NOSIG RMK A2985 CB NE-E=
METAR RPLI 231000Z 04011KT 9999 FEW017CB 30/24 Q1011 NOSIG RMK A2985 CB NE-E=
METAR RPLI 230900Z 04012KT 9999 FEW017CB 32/25 Q1010 NOSIG RMK A2983 CB N/E=
METAR RPLI 230800Z 01011KT 9999 FEW017CB 32/27 Q1009 NOSIG RMK A2980 CB N/E=
METAR RPLI 230700Z 36010KT 330V030 9999 SCT018 32/27 Q1009 NOSIG RMK A2980=
METAR RPLI 230600Z 36010KT 9999 FEW018 33/27 Q1009 NOSIG RMK A2980=
METAR RPLI 230500Z 36008KT 320V030 9999 FEW018 34/26 Q1010 NOSIG RMKA2983=
METAR RPLI 230400Z 08007KT 340V140 9999 FEW018 34/23 Q1011 NOSIG RMK A2985=
METAR RPLI 230300Z 35008KT 320V030 9999 FEW018TCU 32/24 Q1011 NOSIG RMK A2985 TCU NW=
METAR RPLI 230200Z 36007KT 310V020 9999 FEW018 31/24 Q1013 NOSIG RMK A2991=
METAR RPLI 230100Z 29004KT 240V340 9999 FEW018 31/23 Q1013 NOSIG RMK A2991=
METAR RPLI 230000Z VRB02KT 9999 FEW018 28/22 Q1012 RMK A2988=

 

RPVP (PPS) PUERTO PRINCESA INTERNATIONAL AIRPORT

METAR RPVP 250000Z 27004KT 9999 FEW019 26/25 Q1010 RMK A2983=
METAR RPVP 242300Z 27004KT 9999 FEW019 25/24 Q1010 RMK A2983=
METAR RPVP 242200Z 27004KT 9999 FEW019 SCT250 25/23 Q1009 RMK A2980=
METAR RPVP 242100Z 27004KT 9999 FEW019 SCT250 25/24 Q1008 RMK A2977=
METAR RPVP 241800Z 27004KT 9999 FEW017CB SCT250 25/24 Q1009 RMK A2980 CB SSE=
METAR RPVP 241500Z 27004KT 9999 FEW019 SCT250 25/24 Q1010 RMK A2983=
METAR RPVP 241200Z 29004KT 9999 -TSSHRA  FEW017CB SCT019 BKN080 26/25 Q1010 RMK A2983 CB SW-W-NW W/ OCNL TS LTNG=
METAR RPVP 241100Z 29004KT 9999 -TS FEW017CB BKN080 27/24 Q1009 RMK A2980 CB SW-W-NW W/ OCNL TS LTNG= 
METAR RPVP 241000Z 29004KT 9999 -SHRA FEW017CB BKN080 27/24 Q1009 RMK A2980 CB WSW NNW-N =
METAR RPVP 240900Z 18004KT 9999 FEW017CB SCT250 29/25 Q1009 RMK A2980 CB W-NW NNW=
METAR RPVP 240800Z 09006KT 9999 FEW017CB SCT250 29/25 Q1008 RMK A2977 CB NW-NNW= 
METAR RPVP 240700Z 09008KT 9999 FEW017CB 29/25 Q1008 RMK A2977 CB NW=
METAR RPVP 240600Z 09010KT 9999 FEW019 SCT080 30/25 Q1008 RMK A2977=
METAR RPVP 240500Z 12008KT 9999 FEW019 BKN080 29/25 Q1009 RMK A2980=
METAR RPVP 240400Z 12006KT 9999 FEW019 BKN080 29/25 Q1009 RMK A2980=
METAR RPVP 240300Z 06004KT 9999 SCT019 OVC080 28/25 Q1010 RMK A2983= 
METAR RPVP 240200Z 27004KT 9999 SCT019 OVC080 27/24 Q1010 RMK A2983=
METAR RPVP 240100Z 30006KT 9999 FEW019 OVC080 26/24 Q1010 RMK A2983=
METAR RPVP 240000Z 27004KT 9999 FEW019 OVC080 26/24 Q1010 NOSIG RMK A2983=
METAR RPVP 232300Z 27004KT 9999 SCT019 OVC080 25/24 Q1010 RMK A2983=
METAR RPVP 232200Z 27004KT 9999 SCT019 OVC080 25/23 Q1009 RMK A2980=
METAR RPVP 232100Z 27004KT 9999 SCT019 OVC080 24/23 Q1009 RMK A2980=
METAR RPVP 231800Z 27004KT 9999 -RA SCT019 OVC080 25/24 Q1009 RMK A2980=
METAR RPVP 231500Z 27004KT 9999 FEW019 OVC080 25/23 Q1011 RMK A2985=
METAR RPVP 231200Z 27006KT 9999 -RA SCT019 BKN080 25/24 Q1010 RMK A2983=
METAR RPVP 231100Z 36002KT 9999 -RA SCT019 OVC080 25/24 Q1010 RMK A2983=
METAR RPVP 231000Z 36002KT 9999 -SHRA SCT019 OVC080 25/24 Q1010 RMK A2983=
METAR RPVP 230900Z 27002KT 9999 FEW017CB SCT019 OVC080 25/23 Q1010 RMK A2983 CB NNE/SE=
METAR RPVP 230800Z 30006KT 8000 -RA SCT019 OVC080 25/24 Q1009 RETSRA RMK A2980=
METAR RPVP 230700Z 30002KT 4000 TSRA FEW017CB SCT019 OVC080 26/24 Q1009 RMK A2980 CB SE/SW/NW=
METAR RPVP 230600Z 09010G20KT 2000 TSRA FEW017CB SCT019 OVC080 26/24 Q1010 RMK A2983 CB SE/SW/NW=
METAR RPVP 230500Z 15006KT 9999 FEW017CB SCT019 OVC080 28/25 Q1010 RMK A2983 CB E-S=
METAR RPVP 230400Z 21002KT 9999 FEW017CB SCT019 BKN080 28/24 Q1010 RMK A2983 CB E-S=
METAR RPVP 230300Z 36004KT 9999 FEW017CB BKN080 30/24 Q1011 RETS RMK A2985 CB SE=
METAR RPVP 230200Z 36002KT 9999 TS FEW017CB BKN080 30/23 Q1012 RMK A2988 CB SE=
METAR RPVP 230100Z 27006KT 9999 TS FEW017CB BKN080 28/24 Q1011 RMK A2985 CB SE=
METAR RPVP 230000Z 27008KT 9999 FEW019 BKN080 27/23 Q1011 RETS RMK A2985=

 

RPVD (DGT) – SIBULAN AIRPORT (DUMAGUETE AIRPORT)

METAR RPVD 250000Z 25004KT 9999 SCT015 BKN022 27/23 Q1010 RMK A2983=
METAR RPVD 242100Z 00000KT 9999 FEW014CB FEW015 BKN070 25/24 Q1009 RMK A2980 CB/OCNL LGT NE AND  ENE=
METAR RPVD 241800Z 00000KT 9999 FEW014CB FEW015 OVC220 26/24 Q1010 RMK A2983 CB NE, OCNL LTG NE=
METAR RPVD 241500Z 27004KT 9999 FEW015 OVC070 26/24 Q1010 RMK A2983=
METAR RPVD 241200Z 32004KT 9999 FEW015 BKN220 27/25 Q1010 RMK A2983=
METAR RPVD 240900Z 00000KT 9999 VCSH FEW014CB FEW015 BKN070 30/25 Q1009 RMK A2980 CB VCSH NE=
METAR RPVD 240800Z 02004KT 9999 VCSH FEW014CB FEW015 BKN220 30/25 Q1008 RMK A2977 CB VCSH N/NE-ENE=
METAR RPVD 240700Z 11004KT 9999 VCSH FEW014CB FEW015 SCT070 30/25 Q11008 RMK A2977 RETS CB/VCSH NE NNW-N= 
METAR RPVD 240600Z 09006KT 9999 -TS FEW014CB FEW015 30/26 Q1008 RMK A2977 CB NNE/NE/W-NNW W/OCNL TS=
METAR RPVD 240500Z 09008KT 9999 VCSH FEW014CB FEW015 31/26 Q1009 RMK A2980 CB VCSH NW-NNW=
METAR RPVD 240400Z 09006KT 9999 FEW014CB FEW015 31/26 Q1010 RMK A2983 CB NNE/NNW=
METAR RPVD 240300Z 09010KT 9999 FEW015 31/25 Q1010 RMK A2983=
METAR RPVD 240200Z 09008KT 9999 FEW015 30/25 Q1011 RMK A2985=
METAR RPVD 240100Z 11008KT 9999 FEW015 SCT070 30/26 Q1011 RMK A2985=
METAR RPVD 240000Z 25004KT 9999 FEW015 SCT070 28/25 Q1011 RMK A2985=
METAR RPVD 232100Z 22004KT 9999 FEW015 SCT070 OVC220 25/24 Q1009 RMK A2980=
METAR RPVD 231800Z 00000KT 9999 -SHRA SCT015 OVC070 26/25 Q1010 RMK A2983=
METAR RPVD 231500Z 00000KT 9999 TS FEW014CB FEW015 OVC070 26/25 Q1011 RESHRA RMK A2985 CB N, E W/ OCNL LTG=
METAR RPVD 231200Z 20002KT 9999 FEW014CB FEW015 SCT220 27/25 Q1010 RMK A2983 CB NNW-N WITH OCNL LTG=
METAR RPVD 230900Z 00000KT 9999 VCSH FEW014CB FEW015 SCT220 29/25 Q1009 RMK A2980 CB/VCSH NE/NNW=
METAR RPVD 230800Z 00000KT 9999 VCSH FEW014CB FEW015 SCT220 29/25 Q1008 RMK A2977 CB/VCSH NE/NW=
METAR RPVD 230700Z 04004KT 9999 FEW014CB FEW015 SCT220 30/24 Q1008 RMK A2977 CB NE/WNW-NW=
METAR RPVD 230600Z 04004KT 9999 FEW014CB FEW015 SCT220 30/25 Q1008 RMK A2977 CB NE/NW=
METAR RPVD 230500Z 04004KT 9999 FEW014CB FEW015 SCT220 30/24 Q1009 RMK A2980 CB E=
METAR RPVD 230400Z 32004KT 9999 VCSH FEW015 BKN070 30/25 Q1010 RMK A2983 VCSH SE=
METAR RPVD 230300Z 32004KT 9999 VCSH FEW014CB FEW015 BKN070 29/26 Q1010 RMK A2983 CB/VCSH SE-SSE=
METAR RPVD 230200Z 29004KT 9999 VCSH FEW014CB FEW015 OVC070 28/25 Q1011 RMK A2985 CB/VCSH SE-SSE=
METAR RPVD 230100Z 27004KT 9999 VCSH FEW014CB FEW015 OVC070 27/25 Q1011 RESHRA RMK A2985 CB VCSH SE-SW=
METAR RPVD 230000Z 34004KT 9000 -SHRA FEW014CB FEW015 OVC070 27/24 Q1011 RMK A2985 CB SE-SW=

 

RPMR (GES) GENERAL SANTOS INTERNATIONAL AIRTPORT

METAR RPMR 250000Z 02004KT 9999 FEW018 SCT080 28/24 Q1011 RMK A2988=
METAR RPMR 240900Z 29004KT 9999 VCSH FEW018 BKN080 25/24 Q1010 RMK A2983 =
METAR RPMR 240800Z 23009KT 8000 -SHRA FEW018CB BKN080 25/22 Q1009 RMK A2980 =
METAR RPMR 240700Z 15009KT 9999 VCSH FEW018CB BKN080 30/24 Q1009 RMK A2980 CB VCSH NW W=
METAR RPMR 240600Z 14007KT 9999 FEW018 BKN080 31/23 Q1009 RMK A2981=
METAR RPMR 240500Z 13010KT 9999 VCSH FEW018CB SCT080 31/23 Q1010 RMK A2984 CB VCSH NW=
METAR RPMR 240400Z 16010KT 130V190 9999 FEW018 BKN080 29/24 Q1011 RMK A2985 TCU NNW= 
METAR RPMR 240300Z 13007KT 080V190 9999 FEW018 SCT080 29/24 Q1011 RMK A2985=
METAR RPMR 240200Z 14003KT 040V200 9999 FEW018 BKN080 29/23 Q1012 RMK A2988=
METAR RPMR 240100Z 15004KT 9999 FEW018 BKN080 28/24 Q1013 RMK A2991=
METAR RPMR 240000Z VRB01KT 9999 FEW018 BKN080 28/23 Q1013 RMK A2991=
METAR RPMR 230900Z 18011KT 9999 VCSH FEW018 BKN080 28/24 Q1010 RMK A2983 VCSH ESE=
METAR RPMR 230800Z 16013KT 9999 FEW018 BKN080 30/23 Q1009 RMK A2980=
METAR RPMR 230700Z 19011KT 150V210 9999 FEW018 BKN080 31/22 Q1009 RMK A2980=
METAR RPMR 230600Z 18010KT 150V220 9999 VCSH FEW018 BKN080 31/22 Q1009 RMK A2980 VCSH ESE=
METAR RPMR 230500Z 16012KT 9999 VCSH FEW018 BKN080 30/22 Q1010 RMK A2983 VCSH ESE/NW=
METAR RPMR 230400Z 16012KT 9999 FEW018 BKN080 30/22 Q1011 RMK A2985=
METAR RPMR 230300Z 16013KT 9999 FEW018 BKN080 30/23 Q1011 RMK A2985=
METAR RPMR 230200Z 17010KT 110V200 999 FEW018 29/23 Q10112 RMK A2988=
METAR RPMR 230100Z 13006KT 100V170 9999 FEW018 29/23 Q1012 RMK A2988=
METAR RPMR 230000Z 07003KT 020V130 9999 FEW018 28/24 Q1012 RMK A2988=

 

RPMD (DVO) – FRANCISCO BANGOY INTERNATIONAL AIRPORT

METAR RPMD 250000Z 35005KT 300V040 9999 FEW016 SCT290 28/25 Q1011 RMK A2985=
METAR RPMD 242300Z 35004KT 310V030 9999 FEW016 SCT290 27/26 Q1011 RMK A2985=
METAR RPMD 242200Z 33003KT 300V360 9999 FEW016 SCT290 25/25 Q1011 RMK A2985=
METAR RPMD 242100Z 01004KT 330V050 9999 SCT016 SCT290 25/25 Q1010 RMK A2983=
METAR RPMD 242000Z 02005KT 9999 SCT016 SCT090 BKN290 26/26 Q1010 RMK A2983=
METAR RPMD 241900Z 36003KT 320V030 9999 FEW016 BKN090 OVC260 26/26 Q1010 RMK A2983=
METAR RPMD 241800Z VRB02KT 9999 FEW016 BKN090 OVC260 26/26 Q1010 RMK A2983=
METAR RPMD 241700Z VRB02KT 9999 VCSH FEW015 SCT090 OVC260 26/26 Q1010 RMK A2983 VCSH SSW=
METAR RPMD 241600Z 33004KT 9999 VCSH FEW015 SCT080 BKN260 26/26 Q1010 RMK A2983 VCSH S=
METAR RPMD 241500Z VRB02KT 9999 VCSH FEW015 SCT290 26/26 Q1011 RMK A2985 VCSH SE=
METAR RPMD 241400Z 31003KT 9999 FEW016 SCT290 27/24 Q1011 RMK A2985=
METAR RPMD 241300Z 32003KT 9999 FEW016 SCT290 27/24 Q1010 RMK A2983=
METAR RPMD 241200Z VRB02KT 9999 FEW016 SCT090 BKN260 28/25 Q11010 RMK A2983=
METAR RPMD 241100Z 22003KT 9999 FEW015CB SCT090 BKN260 28/24 Q1009 RMK A2980 CB SW=
METAR RPMD 241000Z 26001KT 9999 FEW015CB SCT090 BKN269 28/23 Q1009 RMK A2980 TNG OCNL SW/CB=
METAR RPMD 240900Z 23005KT 9999 FEW015CB SCT090 OVC260 29/23 Q1009 RMK A2980 CB NW=
METAR RPMD 240800Z 19005KT 9999 FEW015CB SCT090 OVC260 30/23 Q1009 RMK A2980 CB N,W=
METAR RPMD 240700Z 18006KT 9999 VCSH FEW015CB SCT090 OVC260 30/23 Q1008 RMK A2977 VCSH NNE-NE W/CB=
METAR RPMD 240600Z 19009KT 9999 FEW015CB FEW016 BKN260 30/24 Q1008 RMK A2977 CB NNW=
METAR RPMD 240500Z 18008KT 140V210 9999 VCSH FEW015CB FEW016 BKN260 31/24 Q1009 RMK A2980 CB E/VCSH W=
METAR RPMD 240400Z 16006KT 100V220 9999 SCT016 BKN260 32/23 Q1010 RMK A2983= 
METAR RPMD 240300Z VRBR05KT 9999 SCT016 BKN290 32/22 Q1011 RMK A2985=
METAR RPMD 240200Z 13006KT 080V170 9999 SCT016 BKN290 30/25 Q1012 RMK A2988=
METAR RPMD 240100Z VRB03KT 9999 FEW016 BKN290 29/25 Q1012 RMK A2988=
METAR RPMD 240000Z VRB02KT 9999 SCT016 BKN090 26/26 Q1012 RMK A2988=
METAR RPMD 232300Z VRB02KT 9999 SCT016 BKN090 26/26 Q1012 RMK A2988=
METAR RPMD 232200Z 34003KT 9999 FEW016 BKN090 BKN290 25/25 Q1011 RMK A2985=
METAR RPMD 232100Z 33003KT 9999 FEW016 BKN090 BKN290 25/25 Q1010 RMK A2983=
METAR RPMD 232000Z 32003KT 9999 FEW016 BKN090 25/25 Q1010 RMK A2983=
METAR RPMD 231900Z 32003KT 9999 FEW016 BKN090 25/25 Q1010 RMK A2983=
METAR RPMD 231800Z 32002KT 9999 FEW016 BKN090 26/26 Q1010 RMK A2983=
METAR RPMD 231700Z 00000KT 9999 FEW016 BKN090 26/26 Q1010 RMK A2983=
METAR RPMD 231600Z 32002KT 9999 FEW016 BKN090 SCT260 26/26 Q1011 RMK A2985=
METAR RPMD 231500Z 31002KT 9999 FEW016 BKN090 SCT260 26/25 Q1011 RMK A2985=
METAR RPMD 231400Z VRB02KT 9999 FEW016 BKN090 26/26 Q1011 RMK A2985=
METAR RPMD 231300Z 31003KT 9999 FEW016 SCT090 BKN260 27/25 Q1011 RMK A2985=
METAR RPMD 231200Z 14003KT 100V180 9999 FEW016 SCT090 BKN260 27/25 Q1011 RMK A2985=
METAR RPMD 231100Z 16004KT 9999 FEW016 SCT090 BKN260 28/24 Q1011 RMK A2985=
METAR RPMD 231000Z 18005KT 140V230 9999 FEW015CB SCT090 BKN260 28/24 Q1010 RMK A2983 CB SW/W=
METAR RPMD 230900Z 18010KT 9999 FEW015CB SCT090 BKN260 28/25 Q1010 RMK A2983 CB W=
METAR RPMD 230800Z 18010KT 9999 VCSH SCT015CB BKN090 BKN290 29/25 Q1009 RMK A2980 CB/VCSH NE/SW-W
METAR RPMD 230700Z 19012KT 9999 VCSH SCT015CB SCT090 BKN290 29/25 Q1008 RMK A2977 CB/VCSH NE/S-SW=
METAR RPMD 230600Z 18012KT 140V200 9999 VCSH FEW015CB FEW016 SCT090 BKN290 31/24 Q1009 RMK A2980 CB/VCSH S-SW=
METAR RPMD 230500Z 16009KT 140V200 9999 FEW015CB FEW016 SCT090 31/24 Q1009 RMK A2980 CB NNE/W=
METAR RPMD 230400Z 15007KT 120V190 9999 FEW015CB SCT090 31/24 Q1010 RMK A2983 CB E/S/SW=
METAR RPMD 230300Z 17008KT 130V190 9999 FEW015CB FEW016 SCT090 30/24 Q1011 RMK A2985 CB NE/SE=
METAR RPMD 230200Z 17006KT 130V220 9999 SCT016 30/23 Q1012 RMK A2988=
METAR RPMD 230100Z 14005KT 090V180 9999 VCSH SCT015 SCT290 29/24 Q1012 RMK A2988 VCSH NE-SE=
METAR RPMD 230000Z VRB01KT 9999 SCT016 BKN290 28/25 Q1012 RMK A2988=

 

RPMZ (ZAM) – ZAMBOANGA INTERNATIONAL AIRPORT

METAR RPMZ 250000Z VRB02KT 9999 FEW017 BKN300 29/23 Q1011 RMK A2985=
METAR RPMZ 242300Z 00000KT 9999 FEW017 SCT090 27/24 Q1011 RMK A2985=
METAR RPMZ 242200Z VRB01KT 9999 FEW017 SCT300 24/22 Q1010 RMK A2983=
METAR RPMZ 242100Z 04001KT 9999 FEW017 SCT300 24/23 Q1009 RMK A2980=
METAR RPMZ 241800Z 05002KT 9999 FEW017 BKN300 24/24 Q1010 RMK A2983=
METAR RPMZ 241500Z VRB01KT 9999 FEW017 OVC300 25/24 Q1011 RMK A2985=
METAR RPMZ 241200Z 00000KT 9999 FEW017 SCT090 BKN300 26/25 Q1010 RMK A2983=
METAR RPMZ 241000Z 33003KT 270V040 9999 FEW017 SCT090 28/24 Q1010 RMK A2983=
METAR RPMZ 240900Z 25005KT 210V300 9999 FEW017 BKN090 29/24 Q1009 RMK A2980=
METAR RPMZ 240800Z 25006KT 9999 FEW017 BKN090 29/24 Q1009 RMK A2980=
METAR RPMZ 240700Z 26008KT 9999 FEW017 SCT090 30/24 Q1008 RMK A2977=
METAR RPMZ 240600Z 26010KT 220V280 9999 FEW017 SCT300 30/24 Q1009 RMK A2980=
METAR RPMZ 240500Z 26007KT 210V300 9999 FEW017 SCT300 31/24 Q1009 RMK A2980=
METAR RPMZ 240400Z 25006KT 200V350 9999 FEW016CB FEW017 BKN090 29/24 Q1010 RMK A2983 CB N=
METAR RPMZ 240300Z 22006KT 170V260 9999 FEW016CB FEW017 BKN090 30/25 Q1011 RMK A2985 CB NE=
METAR RPMZ 240200Z 22006KT 170V280 9999 FEW016CB FEW017 SCT090 29/25 Q1011 RMK A2985 CB NE=
METAR RPMZ 240100Z 24004KT 180V290 9999 FEW016CB FEW017 BKN090 28/25 Q1012 RMK A2988 CB NE=
METAR RPMZ 240000Z 27004KT 210V330 9999 FEW016CB FEW017 SCT090 28/25 Q1011 RMK A2985=
METAR RPMZ 232300Z 00000KT 9999 FEW017 SCT090 27/25 Q1011 RESHRA RMK A2985=
METAR RPMZ 232200Z VRB02KT 9999 FEW016 SCT090 25/25 Q1010 RESHRA RMK A2983=
METAR RPMZ 232100Z 00000KT 9999 SCT017 BKN090 24/24 Q1010 RMK A2983=
METAR RPMZ 231800Z VRB02KT 9999 FEW017 BKN090 24/23 Q1010 RMK A2983=
METAR RPMZ 231500Z VRB02KT 9999 FEW017 SCT090 24/24 Q1011 RMK A2985=
METAR RPMZ 231200Z 01002KT 9999 FEW017 SCT090 25/24 Q1011 RMK A2985=
METAR RPMZ 231000Z 29003KT 9999 SCT016CB BKN090 26/24 Q1010 RMK A2983 CB N/E/SE-S/W=
METAR RPMZ 230900Z 27004KT 9999 FEW017 BKN090 27/24 Q1009 RMK A2980=
METAR RPMZ 230800Z VRB02KT 9999 FEW016CB FEW017 BKN090 28/24 Q1009 RMK A2980 CB SE-S/OHD=
METAR RPMZ 230700Z 21003KT 160V270 9999 FEW017 BKN090 29/24 Q1009 RMK A2980=
METAR RPMZ 230600Z 27004KT 230V320 9999 FEW016CB FEW017 BKN090 27/25 Q1009 RMK A2980 CB SE-S/SW-NW=
METAR RPMZ 230500Z 26008KT 220V290 9999 -SHRA FEW016CB FEW017 BKN090 27/24 Q1010 RMK A2983 CB S-NW/OHD=
METAR RPMZ 230400Z 26006KT 190V310 9999 FEW017 BKN090 28/24 Q1010 RMK A2983=
METAR RPMZ 230300Z VRB02KT 9999 -RA FEW017 BKN090 28/24 Q1011 RMK A2985=
METAR RPMZ 230200Z VRB02KT 9999 -RA FEW017 OVC090 27/24 Q1012 RMK A2988=
METAR RPMZ 230100Z VRB02KT 9999 -RA SCT017 OVC090 25/24 Q1012 RMK A2988=
METAR RPMZ 230000Z 10004KT 9999 -RA SCT016 OVC080 25/24 Q1011 RMK A2985=

 

RPVK (KLO) – KALIBO INTERNATIONAL AIRPORT

METAR RPVK 250000Z 16002KT 9999 VCSH SCT016 BKN070 OVC240 28/25 Q1010 RMK A2983 VCSH N/NW=
METAR RPVK 242100Z 00000KT 9999 FEW016 BKN240 25/24 Q1009 RMK A2980=
METAR RPVK 241800Z 22004KT 9999 SCT016 BKN240 25/25 Q1010 RMK A2983=
METAR RPVK 241500Z 22002KT 9999 SCT016 SCT070 BKN240 25/25 Q1011 RMK A2985 PCPN DSNT N/SE/S/SW/W/NW=
METAR RPVK 241200Z 25003KT 9999 SCT016 BKN070 OVC240 26/26 Q1011 RMK A2985=
METAR RPVK 240900Z 12004KT 9999 -RA SCT016 BKN070 OVC240 27/26 Q1009 RMK A2980 =
METAR RPVK 240800Z 09005KT 9999 -RA SCT016 BKN070 OVC240 28/25 Q1009 RMK A2980=
METAR RPVK 240700Z 07007KT 9999 VCSH SCT016 BKN070 OVC240 29/27 Q1008 RMK A2977=
METAR RPVK 240600Z 06006KT 9999 VCSH SCT016 BKN070 OVC240 29/26 Q1008 RMK A2977  VCSH E/S/SW=
METAR RPVK 240500Z 04003KT 9999 VCSH SCT016 BKN070 OVC240 29/25 Q1009 RMK A2980 VCSH E/SE/S/SW/W=
METAR RPVK 240400Z 07003KT 9999 VCSH SCT016 SCT070 OVC240 29/26 Q1010 RMK A2983 VCSH SE/S/SW/W/NW 
METAR RPVK 240300Z 12003KT 9999 VCSH SCT016 SCT070 OVC240 28/26 Q1011 RMK A2985 VCSH E/SE/S/SW= 
METAR RPVK 230900Z 36003KT 7000 -TSRA SCT019CB SCT070 OVC240 24/24 Q1010 RERA RMK A2983 CB W=
METAR RPVK 240200Z 18001KT 9999 VCSH SCT016 BKN070 OVC240 26/26 Q1011 RMK A2985 VCSH N NE SE S SW=
METAR RPVK 240100Z 19002KT 8000 VCSH SCT016 BKN070 OVC240 26/26 Q1011 RMK A2985 VCSH N, NE, E, SE, S, SW, W, NW=
METAR RPVK 240000Z 01002KT 9999 VCSH FEW016 BKN070 OVC240 26/26 Q1011 RMK A2985 VCSH ALL QDS=
METAR RPVK 232100Z AUTO VRB02KT //// FEW012/// BKN200/// BKN240/// 25/25 Q1010=
METAR RPVK 231800Z 08009KT 050V110 //// SCT016/// BKN019/// BKN230/// 28/26 Q1009=
METAR RPVK 231500Z AUTO 07009KT //// FEW017/// OVC020/// 28/26 Q1011=
METAR RPVK 230900Z 36003KT 7000 -TSRA SCT019CB SCT070 OVC240 24/24 Q1010 RERA RMK A2983 CB W=
METAR RPVK 230800Z 11002KT 5000 TSRA SCT019CB SCT070 OVC240 25/25 Q1009 RMK A2980 CB W=
METAR RPVK 230700Z 13008KT 4000 TSRA SCT019CB BKN070 OVC240 25/25 Q1008 RERA  RMK A2977 CB N=
METAR RPVK 230600Z 04009KT 5000 +TSRA SCT019CB BKN070 OVC240 26/26 Q1009 RMK A2980 CB N=
METAR RPVK 230500Z 05011KT 7000 -RA SCT016 BKN070 OVC240 27/26 Q1009 RMK A2980=
METAR RPVK 230400Z 04011KT 9999 -RA SCT016 BKN070 OVC240 28/26 Q1010 RMK A2983=
METAR RPVK 230300Z 05011KT 9999 VCSH SCT016 BKN070 OVC240 28/26 Q1010 RMK A2983 VCSH NE-W=
METAR RPVK 230200Z 04005KT 8000 -RA SCT016 BKN070 OVC240 25/25 Q1011 RMK A2985=
METAR RPVK 230100Z 08006KT 9999 VCSH SCT016 BKN070 OVC240 28/26 Q1012 RERA RMK A2988 VCSH ALL QDS=
METAR RPVK 230000Z 05002KT 9999 -RA SCT016 BKN070 OVC240 26/26 Q1011 RMK A2985=